createdAt,value
2023-03-13T00:00:07.378Z,9.90
2023-03-13T00:02:43.075Z,4.28
2023-03-13T00:05:21.121Z,5.50
2023-03-13T00:07:56.182Z,7.10
2023-03-13T00:10:31.826Z,5.55
2023-03-13T00:13:07.242Z,6.57
2023-03-13T00:15:42.365Z,5.55
2023-03-13T00:18:17.310Z,6.20
2023-03-13T00:21:00.991Z,4.72
2023-03-13T00:23:37.157Z,6.53
2023-03-13T00:26:13.021Z,3.15
2023-03-13T00:28:48.047Z,4.05
2023-03-13T00:31:22.502Z,4.37
2023-03-13T00:33:58.780Z,5.03
2023-03-13T00:36:37.315Z,3.55
2023-03-13T00:39:12.076Z,4.83
2023-03-13T00:41:48.109Z,3.65
2023-03-13T00:44:23.633Z,4.13
2023-03-13T00:47:01.700Z,3.83
2023-03-13T00:49:37.337Z,3.50
2023-03-13T00:52:15.045Z,4.20
2023-03-13T00:54:50.344Z,4.50
2023-03-13T00:57:28.269Z,4.33
2023-03-13T01:00:06.338Z,2.83
2023-03-13T01:02:45.953Z,4.90
2023-03-13T01:05:22.968Z,3.95
2023-03-13T01:08:03.296Z,4.82
2023-03-13T01:10:38.202Z,4.05
2023-03-13T01:13:13.493Z,5.30
2023-03-13T01:15:48.794Z,4.00
2023-03-13T01:18:24.695Z,5.03
2023-03-13T01:21:01.622Z,4.45
2023-03-13T01:26:15.731Z,4.07
2023-03-13T01:31:27.772Z,5.07
2023-03-13T01:34:03.449Z,6.47
2023-03-13T01:36:39.738Z,3.92
2023-03-13T01:39:18.186Z,4.40
2023-03-13T01:41:53.890Z,5.75
2023-03-13T01:44:30.309Z,4.50
2023-03-13T01:49:44.760Z,3.90
2023-03-13T01:52:30.707Z,4.80
2023-03-13T01:58:02.472Z,3.60
2023-03-13T02:00:39.510Z,5.50
2023-03-13T02:03:18.249Z,6.10
2023-03-13T02:05:53.038Z,6.40
2023-03-13T02:08:28.684Z,5.40
2023-03-13T02:11:12.998Z,4.80
2023-03-13T02:13:50.409Z,8.30
2023-03-13T02:16:26.219Z,5.35
2023-03-13T02:19:01.587Z,8.80
2023-03-13T02:21:40.371Z,5.70
2023-03-13T02:24:19.268Z,7.20
2023-03-13T02:26:56.619Z,5.53
2023-03-13T02:29:32.689Z,7.82
2023-03-13T02:32:08.583Z,8.95
2023-03-13T02:34:43.559Z,8.73
2023-03-13T02:37:18.509Z,6.82
2023-03-13T02:39:53.181Z,8.57
2023-03-13T02:45:11.562Z,11.00
2023-03-13T02:47:48.375Z,9.02
2023-03-13T02:50:23.153Z,11.23
2023-03-13T02:52:59.841Z,9.82
2023-03-13T02:55:36.162Z,8.95
2023-03-13T02:58:14.215Z,10.95
2023-03-13T03:00:50.382Z,8.75
2023-03-13T03:03:26.103Z,11.25
2023-03-13T03:06:01.002Z,13.10
2023-03-13T03:08:35.906Z,12.55
2023-03-13T03:11:14.234Z,11.70
2023-03-13T03:13:53.905Z,10.70
2023-03-13T03:16:32.374Z,10.35
2023-03-13T03:19:08.027Z,10.93
2023-03-13T03:21:45.372Z,12.68
2023-03-13T03:24:17.931Z,10.90
2023-03-13T03:26:53.245Z,11.82
2023-03-13T03:29:38.952Z,12.52
2023-03-13T03:32:13.896Z,12.80
2023-03-13T03:34:49.164Z,10.45
2023-03-13T03:37:26.570Z,13.75
2023-03-13T03:40:02.827Z,14.23
2023-03-13T03:42:39.386Z,15.60
2023-03-13T03:45:17.759Z,14.43
2023-03-13T03:47:53.836Z,15.95
2023-03-13T03:53:08.208Z,16.35
2023-03-13T03:55:41.920Z,15.30
2023-03-13T03:58:17.144Z,17.20
2023-03-13T04:01:21.021Z,16.88
2023-03-13T04:03:56.311Z,15.32
2023-03-13T04:06:30.660Z,16.25
2023-03-13T04:09:05.091Z,15.60
2023-03-13T04:11:41.313Z,16.58
2023-03-13T04:14:17.875Z,15.73
2023-03-13T04:16:57.060Z,18.20
2023-03-13T04:19:34.152Z,15.32
2023-03-13T04:22:09.411Z,19.50
2023-03-13T04:24:46.870Z,18.35
2023-03-13T04:27:23.599Z,16.42
2023-03-13T04:30:00.750Z,16.65
2023-03-13T04:32:53.498Z,13.37
2023-03-13T04:35:40.695Z,16.52
2023-03-13T04:38:34.347Z,15.68
2023-03-13T04:41:22.698Z,15.00
2023-03-13T04:44:36.341Z,16.80
2023-03-13T04:47:18.563Z,18.10
2023-03-13T04:50:19.596Z,18.25
2023-03-13T04:53:11.949Z,17.20
2023-03-13T04:56:16.203Z,16.85
2023-03-13T04:59:11.194Z,15.27
2023-03-13T05:02:07.069Z,15.55
2023-03-13T05:04:52.302Z,17.23
2023-03-13T05:07:38.195Z,16.98
2023-03-13T05:10:31.349Z,14.55
2023-03-13T05:13:26.809Z,14.65
2023-03-13T05:16:34.943Z,18.77
2023-03-13T05:19:35.330Z,19.45
2023-03-13T05:22:51.635Z,16.73
2023-03-13T05:25:52.281Z,16.10
2023-03-13T05:29:08.244Z,14.82
2023-03-13T05:35:18.186Z,18.92
2023-03-13T05:38:26.670Z,20.73
2023-03-13T05:41:29.789Z,17.88
2023-03-13T05:44:28.757Z,19.50
2023-03-13T05:50:37.334Z,19.92
2023-03-13T05:58:03.089Z,14.10
2023-03-13T06:01:23.104Z,18.55
2023-03-13T06:11:27.441Z,18.40
2023-03-13T06:20:24.834Z,19.65
2023-03-13T06:23:48.098Z,15.45
2023-03-13T06:39:55.740Z,16.30
2023-03-13T06:49:40.538Z,19.40
2023-03-13T06:58:35.940Z,17.08
2023-03-13T07:01:14.829Z,21.75
2023-03-13T07:03:51.940Z,16.13
2023-03-13T07:06:31.484Z,13.17
2023-03-13T07:09:17.753Z,19.60
2023-03-13T07:11:54.754Z,20.05
2023-03-13T07:14:48.013Z,16.77
2023-03-13T07:17:43.376Z,14.30
2023-03-13T07:20:30.687Z,18.98
2023-03-13T07:23:12.266Z,12.77
2023-03-13T07:25:45.804Z,11.73
2023-03-13T07:28:31.372Z,13.10
2023-03-13T07:31:19.221Z,17.55
2023-03-13T07:34:15.280Z,13.15
2023-03-13T07:36:54.271Z,17.53
2023-03-13T07:46:27.557Z,15.30
2023-03-13T07:49:22.728Z,16.00
2023-03-13T07:55:57.673Z,11.63
2023-03-13T07:59:19.876Z,13.95
2023-03-13T08:03:04.067Z,15.87
2023-03-13T08:06:09.868Z,19.17
2023-03-13T08:09:22.146Z,15.57
2023-03-13T08:12:31.210Z,13.02
2023-03-13T08:15:35.820Z,14.85
2023-03-13T08:18:50.466Z,14.23
2023-03-13T08:22:24.408Z,12.60
2023-03-13T08:25:47.291Z,13.80
2023-03-13T08:35:27.389Z,15.63
2023-03-13T08:41:10.495Z,13.60
2023-03-13T08:44:00.980Z,17.10
2023-03-13T08:46:54.417Z,18.52
2023-03-13T08:50:00.815Z,14.30
2023-03-13T08:53:10.000Z,12.73
2023-03-13T08:56:20.030Z,12.03
2023-03-13T08:58:58.592Z,15.55
2023-03-13T09:01:39.176Z,8.50
2023-03-13T09:04:36.074Z,14.15
2023-03-13T09:10:11.336Z,11.65
2023-03-13T09:13:03.510Z,12.55
2023-03-13T09:15:49.052Z,12.25
2023-03-13T09:18:37.169Z,12.03
2023-03-13T09:21:21.174Z,12.70
2023-03-13T09:24:12.553Z,15.70
2023-03-13T09:29:56.223Z,8.73
2023-03-13T11:00:08.606Z,16.65
2023-03-13T11:02:48.742Z,12.80
2023-03-13T11:05:50.613Z,13.73
2023-03-13T11:08:40.434Z,15.82
2023-03-13T11:15:03.446Z,10.35
2023-03-13T11:37:40.670Z,10.85
2023-03-13T13:13:42.263Z,2.00
2023-03-13T13:23:40.144Z,4.60
2023-03-13T13:26:26.295Z,3.45
2023-03-13T13:32:31.682Z,5.93
2023-03-13T13:42:00.529Z,4.60
2023-03-13T13:56:22.498Z,6.68
2023-03-13T14:00:25.410Z,6.15
2023-03-13T14:09:53.888Z,6.18
2023-03-13T14:29:27.348Z,6.00
2023-03-13T14:32:06.624Z,7.78
2023-03-13T14:34:51.898Z,4.13
2023-03-13T14:46:50.233Z,4.85
2023-03-13T14:49:44.671Z,5.28
2023-03-13T14:52:54.928Z,5.32
2023-03-13T16:49:27.192Z,4.85
2023-03-13T16:52:12.376Z,10.35
2023-03-13T16:54:54.694Z,7.05
2023-03-13T16:57:39.208Z,4.47
2023-03-13T17:00:40.205Z,5.28
2023-03-13T17:07:01.858Z,4.15
2023-03-13T17:10:35.241Z,5.72
2023-03-13T17:13:53.791Z,3.90
2023-03-13T17:16:55.887Z,3.40
2023-03-13T17:19:47.801Z,5.07
2023-03-13T17:22:30.498Z,4.95
2023-03-13T17:25:09.972Z,5.80
2023-03-13T17:28:22.271Z,3.60
2023-03-13T17:34:56.205Z,3.50
2023-03-13T17:37:56.251Z,2.70
2023-03-13T17:50:53.942Z,5.40
2023-03-13T17:57:06.701Z,5.50
2023-03-13T18:08:42.615Z,4.53
2023-03-13T18:11:45.640Z,9.95
2023-03-13T18:14:18.431Z,13.57
2023-03-13T18:16:57.859Z,7.00
2023-03-13T18:19:34.460Z,4.85
2023-03-13T18:22:15.519Z,4.90
2023-03-13T18:24:53.198Z,4.23
2023-03-13T18:27:33.917Z,4.60
2023-03-13T18:30:18.200Z,7.07
2023-03-13T18:33:07.562Z,7.47
2023-03-13T18:35:45.497Z,5.80
2023-03-13T18:38:29.665Z,3.87
2023-03-13T18:41:10.975Z,4.90
2023-03-13T18:43:48.756Z,6.10
2023-03-13T18:46:46.346Z,9.43
2023-03-13T18:52:32.589Z,12.15
2023-03-13T18:58:25.592Z,8.85
2023-03-13T19:03:55.476Z,10.27
2023-03-13T19:06:40.631Z,7.40
2023-03-13T19:09:47.162Z,7.05
2023-03-13T19:12:46.969Z,8.10
2023-03-13T19:15:37.802Z,8.60
2023-03-13T19:46:02.042Z,5.40
2023-03-13T19:49:25.389Z,4.50
2023-03-13T19:55:19.454Z,6.80
2023-03-13T19:58:09.360Z,4.82
2023-03-13T20:01:21.289Z,5.80
2023-03-13T20:07:18.968Z,9.40
2023-03-13T20:10:26.097Z,5.32
2023-03-13T20:13:13.661Z,5.10
2023-03-13T20:16:09.786Z,8.00
2023-03-13T20:18:55.521Z,8.05
2023-03-13T20:24:39.510Z,5.10
2023-03-13T20:34:15.656Z,7.35
2023-03-13T20:46:44.630Z,6.82
2023-03-13T20:49:58.319Z,6.45
2023-03-13T20:52:40.807Z,4.50
2023-03-13T20:59:21.392Z,7.40
2023-03-13T21:06:28.339Z,6.75
2023-03-13T21:15:01.000Z,6.85
2023-03-13T21:27:06.206Z,10.77
2023-03-13T21:39:44.570Z,9.50
2023-03-13T21:42:47.817Z,6.28
2023-03-13T21:45:37.580Z,8.35
2023-03-13T21:51:20.739Z,7.55
2023-03-13T21:54:05.264Z,8.50
2023-03-13T21:57:19.592Z,8.68
2023-03-13T22:00:15.107Z,7.03
2023-03-13T22:02:55.844Z,4.57
2023-03-13T22:05:43.400Z,7.30
2023-03-13T22:08:18.886Z,8.57
2023-03-13T22:14:11.352Z,9.48
2023-03-13T22:17:09.215Z,8.17
2023-03-13T22:19:58.558Z,8.80
2023-03-13T22:22:56.627Z,6.20
2023-03-13T22:26:24.179Z,7.10
2023-03-13T22:29:17.581Z,9.68
2023-03-13T22:31:57.882Z,8.45
2023-03-13T22:50:29.393Z,6.45
2023-03-13T22:53:16.304Z,5.47
2023-03-13T22:59:21.286Z,11.90
2023-03-13T23:05:38.209Z,6.32
2023-03-13T23:08:49.776Z,5.75
2023-03-13T23:11:42.263Z,8.35
2023-03-13T23:14:44.820Z,8.75
2023-03-13T23:17:26.108Z,7.80
2023-03-13T23:20:12.827Z,7.60
2023-03-13T23:23:01.735Z,8.85
2023-03-13T23:26:18.769Z,7.32
2023-03-13T23:32:30.003Z,5.82
